Time;durP1;ratioP1;P1;durP2;ratioP2;P2;SDS_P1;SDS_P2;PMS_P1;PMS_P2;Temp;Humidity;BMP_temperature;BMP_pressure;BME280_temperature;BME280_humidity;BME280_pressure;Samples;Min_cycle;Max_cycle;Signal;HPM_P1;HPM_P2
2022/05/30 00:00:30;;;;;;;;;;;;;;;23.11;44.34;94462.75;2078159;28;1646;-69
2022/05/30 00:01:32;;;;;;;;;;;;;;;23.12;44.53;94455.50;2076288;28;1717;-67
2022/05/30 00:02:35;;;;;;;;;;;;;;;23.14;44.51;94456.09;2069551;28;1102;-65
2022/05/30 00:03:38;;;;;;;;;;;;;;;23.15;44.50;94453.16;2080187;28;1440;-65
2022/05/30 00:04:40;;;;;;;;;;;;;;;23.17;44.62;94455.63;2071547;28;1011;-69
2022/05/30 00:05:43;;;;;;;;;;;;;;;23.16;44.78;94452.13;2073851;28;1043;-69
2022/05/30 00:06:46;;;;;;;;;;;;;;;23.19;44.35;94464.19;2078679;28;1737;-68
2022/05/30 00:07:50;;;;;;;;;;;;;;;23.18;44.56;94460.72;2080964;28;1578;-68
2022/05/30 00:08:52;;;;;;;;;;;;;;;23.19;44.35;94456.16;2078060;28;1745;-66
2022/05/30 00:09:54;;;;;;;;;;;;;;;23.18;44.34;94466.06;2072608;28;1538;-69
2022/05/30 00:10:57;;;;;;;;;;;;;;;23.18;44.32;94460.72;2074067;28;1110;-69
2022/05/30 00:11:59;;;;;;;;;;;;;;;23.19;44.56;94459.69;2072115;28;1910;-68
2022/05/30 00:13:02;;;;;;;;;;;;;;;23.19;44.51;94464.19;2069268;28;1822;-69
2022/05/30 00:14:05;;;;;;;;;;;;;;;23.17;44.58;94461.78;2069065;28;1146;-68
2022/05/30 00:15:08;;;;;;;;;;;;;;;23.17;44.42;94460.97;2080454;28;1431;-69
2022/05/30 00:16:13;;;;;;;;;;;;;;;23.19;44.36;94462.38;2081279;28;1152;-69
2022/05/30 00:17:15;;;;;;;;;;;;;;;23.18;44.52;94463.41;2080329;28;1648;-69
2022/05/30 00:18:18;;;;;;;;;;;;;;;23.19;44.32;94464.19;2077193;28;1812;-65
2022/05/30 00:19:20;;;;;;;;;;;;;;;23.17;44.66;94467.13;2073235;28;1093;-67
2022/05/30 00:20:23;;;;;;;;;;;;;;;23.16;44.62;94464.69;2073266;28;1111;-68
2022/05/30 00:21:26;;;;;;;;;;;;;;;23.17;44.34;94469.00;2079031;28;1795;-69
2022/05/30 00:22:28;;;;;;;;;;;;;;;23.16;44.50;94470.88;2078819;28;1519;-68
2022/05/30 00:23:32;;;;;;;;;;;;;;;23.17;44.55;94471.69;2078328;28;1375;-66
2022/05/30 00:24:34;;;;;;;;;;;;;;;23.19;44.38;94477.59;2066556;28;1348;-64
2022/05/30 00:25:39;;;;;;;;;;;;;;;23.18;44.33;94478.66;2071289;28;1759;-64
2022/05/30 00:26:41;;;;;;;;;;;;;;;23.19;44.14;94480.28;2073129;28;1042;-68
2022/05/30 00:27:44;;;;;;;;;;;;;;;23.20;44.04;94476.56;2074698;28;1155;-69
2022/05/30 00:28:47;;;;;;;;;;;;;;;23.20;44.33;94476.56;2074700;28;1178;-68
2022/05/30 00:29:49;;;;;;;;;;;;;;;23.18;44.36;94474.13;2074658;28;1155;-68
2022/05/30 00:30:52;;;;;;;;;;;;;;;23.20;44.28;94472.00;2074617;28;863;-68
2022/05/30 00:31:54;;;;;;;;;;;;;;;23.18;44.19;94474.13;2074789;28;1019;-68
2022/05/30 00:32:57;;;;;;;;;;;;;;;23.19;44.24;94474.91;2073402;28;1985;-67
2022/05/30 00:33:59;;;;;;;;;;;;;;;23.18;44.19;94474.13;2072729;28;1439;-67
2022/05/30 00:35:01;;;;;;;;;;;;;;;23.18;43.88;94484.03;2081749;28;1586;-68
2022/05/30 00:36:05;;;;;;;;;;;;;;;23.17;44.07;94472.50;2077253;28;1618;-66
2022/05/30 00:37:07;;;;;;;;;;;;;;;23.18;43.82;94476.00;2081376;28;1451;-69
2022/05/30 00:38:10;;;;;;;;;;;;;;;23.15;44.11;94469.25;2082495;28;1057;-69
2022/05/30 00:39:13;;;;;;;;;;;;;;;23.14;43.83;94464.94;2083342;28;1020;-68
2022/05/30 00:40:16;;;;;;;;;;;;;;;23.15;44.12;94474.59;2080402;28;1757;-67
2022/05/30 00:41:18;;;;;;;;;;;;;;;23.14;43.63;94472.19;2083172;28;1791;-68
2022/05/30 00:42:23;;;;;;;;;;;;;;;23.14;43.89;94472.97;2081359;28;1449;-68
2022/05/30 00:43:25;;;;;;;;;;;;;;;23.15;43.54;94477.28;2079354;28;1405;-68
2022/05/30 00:44:29;;;;;;;;;;;;;;;23.14;43.53;94466.81;2080345;28;1110;-66
2022/05/30 00:45:30;;;;;;;;;;;;;;;23.11;43.88;94478.03;2080544;28;1771;-70
2022/05/30 00:46:33;;;;;;;;;;;;;;;23.12;43.67;94471.59;2083050;28;1208;-68
2022/05/30 00:47:35;;;;;;;;;;;;;;;23.12;43.59;94475.09;2073222;28;1410;-69
2022/05/30 00:48:40;;;;;;;;;;;;;;;23.10;43.49;94476.38;2082234;28;1146;-65
2022/05/30 00:49:44;;;;;;;;;;;;;;;23.08;43.65;94483.84;2082276;28;1325;-69
2022/05/30 00:50:48;;;;;;;;;;;;;;;23.08;43.50;94482.00;2074682;28;1066;-75
2022/05/30 00:51:52;;;;;;;;;;;;;;;23.07;43.63;94482.22;2075100;28;1102;-66
2022/05/30 00:52:53;;;;;;;;;;;;;;;23.04;43.83;94488.06;2075609;28;1915;-65
2022/05/30 00:53:58;;;;;;;;;;;;;;;23.03;43.71;94479.22;2073315;28;1186;-70
2022/05/30 00:55:05;;;;;;;;;;;;;;;23.05;43.72;94487.00;2082575;28;1046;-67
2022/05/30 00:56:10;;;;;;;;;;;;;;;23.05;43.85;94487.84;2082613;28;1098;-67
2022/05/30 00:57:20;;;;;;;;;;;;;;;23.03;44.04;94481.88;2081740;28;1435;-67
2022/05/30 00:58:25;;;;;;;;;;;;;;;22.99;43.53;94484.25;2078502;28;1115;-65
2022/05/30 00:59:26;;;;;;;;;;;;;;;22.97;43.94;94488.22;2077798;28;1718;-67
2022/05/30 01:00:29;;;;;;;;;;;;;;;22.99;43.92;94486.09;2081446;28;1586;-68
2022/05/30 01:01:32;;;;;;;;;;;;;;;22.99;43.82;94486.09;2074350;28;1205;-67
2022/05/30 01:02:36;;;;;;;;;;;;;;;22.98;43.52;94484.47;2076511;28;1698;-66
2022/05/30 01:06:30;;;;;;;;;;;;;;;23.00;43.56;94480.50;2079618;28;1498;-67
2022/05/30 01:07:34;;;;;;;;;;;;;;;22.99;43.58;94480.72;2082437;28;1132;-67
2022/05/30 01:08:35;;;;;;;;;;;;;;;23.00;43.50;94479.69;2074187;28;1714;-67
2022/05/30 01:09:40;;;;;;;;;;;;;;;22.97;43.77;94475.63;2069841;28;1337;-64
2022/05/30 01:10:43;;;;;;;;;;;;;;;22.98;43.69;94479.91;2074928;28;1616;-67
2022/05/30 01:11:47;;;;;;;;;;;;;;;22.97;43.52;94483.66;2082343;28;1181;-68
2022/05/30 01:12:52;;;;;;;;;;;;;;;22.96;43.73;94482.03;2075650;28;1906;-68
2022/05/30 01:13:55;;;;;;;;;;;;;;;22.98;43.54;94484.47;2078439;28;1473;-67
2022/05/30 01:14:57;;;;;;;;;;;;;;;22.97;43.67;94477.50;2074503;28;975;-67
2022/05/30 01:16:00;;;;;;;;;;;;;;;22.98;43.74;94485.28;2074227;28;1203;-67
2022/05/30 01:17:02;;;;;;;;;;;;;;;22.99;43.48;94476.22;2077452;28;1590;-67
2022/05/30 01:18:08;;;;;;;;;;;;;;;22.99;43.51;94481.56;2076714;28;1138;-67
2022/05/30 01:19:25;;;;;;;;;;;;;;;23.00;43.47;94482.38;2078091;28;1519;-67
2022/05/30 01:20:42;;;;;;;;;;;;;;;22.97;43.35;94489.03;2082240;28;1114;-67
2022/05/30 01:21:54;;;;;;;;;;;;;;;22.95;43.68;94488.44;2072394;28;1588;-67
2022/05/30 01:23:10;;;;;;;;;;;;;;;22.95;43.99;94491.13;2073991;28;1372;-65
2022/05/30 01:24:18;;;;;;;;;;;;;;;22.97;43.69;94494.38;2074746;28;1146;-65
2022/05/30 01:25:27;;;;;;;;;;;;;;;23.02;43.14;94489.13;2082571;28;1149;-67
2022/05/30 01:26:42;;;;;;;;;;;;;;;23.05;43.29;94495.03;2082049;28;1851;-66
2022/05/30 01:27:49;;;;;;;;;;;;;;;23.05;43.41;94495.03;2077045;28;1350;-70
2022/05/30 01:28:57;;;;;;;;;;;;;;;22.91;43.85;94495.34;2082121;28;1612;-67
2022/05/30 01:30:01;;;;;;;;;;;;;;;22.95;43.55;94491.13;2080790;28;1487;-66
2022/05/30 01:31:03;;;;;;;;;;;;;;;22.87;43.74;94496.84;2080757;28;1054;-67
2022/05/30 01:32:06;;;;;;;;;;;;;;;22.84;44.10;94493.84;2081460;28;1447;-65
2022/05/30 01:33:09;;;;;;;;;;;;;;;22.83;43.90;94493.03;2067995;28;1993;-66
2022/05/30 01:34:11;;;;;;;;;;;;;;;22.85;44.11;94496.28;2071879;28;1099;-67
2022/05/30 01:35:21;;;;;;;;;;;;;;;22.82;43.75;94494.06;2078906;28;1508;-67
2022/05/30 01:36:24;;;;;;;;;;;;;;;22.78;44.28;94487.56;2082507;28;1180;-67
2022/05/30 01:37:27;;;;;;;;;;;;;;;22.75;44.22;94488.06;2081726;28;1692;-67
2022/05/30 01:38:29;;;;;;;;;;;;;;;22.75;44.14;94490.72;2076025;28;1118;-66
2022/05/30 01:39:32;;;;;;;;;;;;;;;22.75;44.00;94496.91;2076609;28;1619;-66
2022/05/30 01:40:34;;;;;;;;;;;;;;;22.75;44.00;94496.09;2082097;28;1524;-66
2022/05/30 01:41:36;;;;;;;;;;;;;;;22.73;44.10;94498.19;2080016;28;1382;-66
2022/05/30 01:42:38;;;;;;;;;;;;;;;22.72;44.17;94492.00;2079228;28;1489;-63
2022/05/30 01:43:41;;;;;;;;;;;;;;;22.71;44.12;94490.41;2078237;28;1972;-67
2022/05/30 01:44:44;;;;;;;;;;;;;;;22.71;44.17;94495.75;2073898;28;1375;-65
2022/05/30 01:45:47;;;;;;;;;;;;;;;22.72;44.06;94497.38;2081240;28;1526;-67
2022/05/30 01:46:49;;;;;;;;;;;;;;;22.74;44.24;94491.78;2081870;28;1122;-67
2022/05/30 01:47:52;;;;;;;;;;;;;;;22.72;44.18;94500.06;2081222;28;1424;-67
2022/05/30 01:48:54;;;;;;;;;;;;;;;22.72;44.11;94501.91;2081920;28;1126;-67
2022/05/30 01:49:57;;;;;;;;;;;;;;;22.69;43.93;94491.66;2077479;28;1476;-67
2022/05/30 01:51:00;;;;;;;;;;;;;;;22.68;43.86;94495.34;2081605;28;1697;-66
2022/05/30 01:52:03;;;;;;;;;;;;;;;22.68;43.87;94500.72;2080390;28;1842;-67
2022/05/30 01:53:05;;;;;;;;;;;;;;;22.69;44.04;94497.81;2075328;28;1130;-67
2022/05/30 01:54:07;;;;;;;;;;;;;;;22.69;44.11;94503.19;2071818;28;1902;-67
2022/05/30 01:55:09;;;;;;;;;;;;;;;22.70;44.25;94499.47;2070584;28;1812;-65
2022/05/30 01:56:12;;;;;;;;;;;;;;;22.70;44.02;94499.47;2071063;28;1190;-68
2022/05/30 01:57:15;;;;;;;;;;;;;;;22.69;43.94;94499.69;2073666;28;1354;-67
2022/05/30 01:58:17;;;;;;;;;;;;;;;22.61;44.21;94500.06;2073796;28;1129;-65
2022/05/30 01:59:20;;;;;;;;;;;;;;;22.46;44.58;94506.72;2074538;28;1059;-71
2022/05/30 02:00:23;;;;;;;;;;;;;;;22.42;44.47;94502.88;2077958;28;1866;-71
2022/05/30 02:01:27;;;;;;;;;;;;;;;22.32;44.74;94508.03;2081081;28;1906;-69
2022/05/30 02:02:29;;;;;;;;;;;;;;;22.27;45.02;94513.25;2081860;28;1685;-72
2022/05/30 02:03:33;;;;;;;;;;;;;;;22.24;44.92;94508.38;2079435;28;1367;-70
2022/05/30 02:04:35;;;;;;;;;;;;;;;22.18;44.88;94507.44;2080208;28;1660;-70
2022/05/30 02:05:38;;;;;;;;;;;;;;;22.18;44.95;94512.81;2081517;28;1026;-70
2022/05/30 02:06:40;;;;;;;;;;;;;;;22.21;45.33;94512.34;2076059;28;1424;-69
2022/05/30 02:07:43;;;;;;;;;;;;;;;22.20;45.06;94504.56;2078266;28;1508;-66
2022/05/30 02:08:45;;;;;;;;;;;;;;;22.19;44.84;94506.38;2080643;28;1621;-71
2022/05/30 02:09:47;;;;;;;;;;;;;;;22.16;45.14;94509.53;2082494;28;1078;-71
2022/05/30 02:10:49;;;;;;;;;;;;;;;22.17;44.89;94505.84;2081710;28;1061;-71
2022/05/30 02:11:52;;;;;;;;;;;;;;;22.17;45.11;94510.34;2077013;28;1504;-70
2022/05/30 02:12:54;;;;;;;;;;;;;;;22.17;45.20;94510.34;2077036;28;1463;-71
2022/05/30 02:13:57;;;;;;;;;;;;;;;22.13;44.75;94505.47;2078801;28;2013;-64
2022/05/30 02:14:59;;;;;;;;;;;;;;;22.11;44.99;94504.09;2073375;28;1336;-70
2022/05/30 02:17:25;;;;;;;;;;;;;;;22.06;44.83;94509.31;2080778;28;1889;-72
2022/05/30 02:18:26;;;;;;;;;;;;;;;22.06;44.77;94518.16;2074794;28;1178;-71
2022/05/30 02:19:31;;;;;;;;;;;;;;;22.07;45.08;94522.47;2081823;28;1077;-71
2022/05/30 02:20:33;;;;;;;;;;;;;;;22.08;44.93;94516.06;2081618;28;1797;-72
2022/05/30 02:21:36;;;;;;;;;;;;;;;22.08;44.72;94518.75;2081006;28;1191;-66
2022/05/30 02:22:38;;;;;;;;;;;;;;;22.07;44.79;94522.47;2078664;28;1784;-67
2022/05/30 02:23:41;;;;;;;;;;;;;;;22.07;44.79;94519.78;2081046;28;1303;-74
2022/05/30 02:24:43;;;;;;;;;;;;;;;22.08;44.82;94525.94;2073022;28;1343;-71
2022/05/30 02:25:46;;;;;;;;;;;;;;;22.07;44.56;94527.00;2073692;28;1122;-70
2022/05/30 02:26:48;;;;;;;;;;;;;;;22.04;44.86;94522.94;2074852;28;1438;-71
2022/05/30 02:27:50;;;;;;;;;;;;;;;22.03;44.39;94521.31;2081042;28;1386;-72
2022/05/30 02:28:52;;;;;;;;;;;;;;;22.03;44.38;94523.97;2073483;28;1493;-66
2022/05/30 02:29:55;;;;;;;;;;;;;;;22.03;44.54;94523.97;2076555;28;1948;-66
2022/05/30 02:30:57;;;;;;;;;;;;;;;22.06;44.25;94514.69;2078695;28;1723;-70
2022/05/30 02:32:01;;;;;;;;;;;;;;;22.04;44.10;94522.13;2078707;28;1296;-72
2022/05/30 02:37:10;;;;;;;;;;;;;;;22.01;44.30;94528.75;2049893;28;1735;-72
2022/05/30 02:38:11;;;;;;;;;;;;;;;22.03;44.36;94529.34;2073040;28;1287;-72
2022/05/30 02:39:15;;;;;;;;;;;;;;;22.03;44.38;94523.97;2073705;28;1177;-71
2022/05/30 02:40:17;;;;;;;;;;;;;;;22.04;44.67;94527.47;2070011;28;1535;-70
2022/05/30 02:41:20;;;;;;;;;;;;;;;22.02;44.31;94530.34;2077073;28;1303;-71
2022/05/30 02:42:22;;;;;;;;;;;;;;;21.99;44.05;94525.47;2080538;28;1325;-70
2022/05/30 02:43:24;;;;;;;;;;;;;;;21.96;44.21;94533.16;2079168;28;1427;-70
2022/05/30 02:44:26;;;;;;;;;;;;;;;21.95;44.20;94526.16;2075305;28;1291;-71
2022/05/30 02:45:29;;;;;;;;;;;;;;;21.93;44.18;94533.59;2074496;28;1320;-72
2022/05/30 02:46:31;;;;;;;;;;;;;;;21.89;44.10;94531.38;2073740;28;1046;-71
2022/05/30 02:47:35;;;;;;;;;;;;;;;21.79;44.21;94538.34;2078671;28;1722;-69
2022/05/30 02:48:37;;;;;;;;;;;;;;;20.74;45.97;94540.41;2073390;28;1041;-65
2022/05/30 02:49:40;;;;;;;;;;;;;;;20.39;47.40;94536.72;2073299;28;1384;-71
2022/05/30 02:50:44;;;;;;;;;;;;;;;20.17;47.83;94545.09;2077510;28;1943;-72
2022/05/30 02:51:48;;;;;;;;;;;;;;;19.95;48.48;94541.22;2073019;28;1429;-68
2022/05/30 02:52:50;;;;;;;;;;;;;;;19.93;48.71;94541.44;2069400;28;1774;-71
2022/05/30 02:53:52;;;;;;;;;;;;;;;19.98;48.45;94546.13;2077693;28;1729;-70
2022/05/30 02:54:55;;;;;;;;;;;;;;;20.11;48.21;94543.31;2076924;28;1887;-70
2022/05/30 02:55:57;;;;;;;;;;;;;;;20.37;47.83;94544.94;2082158;28;2036;-72
2022/05/30 02:57:00;;;;;;;;;;;;;;;20.36;47.34;94550.47;2080123;28;1787;-71
2022/05/30 02:58:03;;;;;;;;;;;;;;;20.43;47.34;94548.56;2073429;28;1134;-73
2022/05/30 02:59:06;;;;;;;;;;;;;;;20.45;47.44;94552.63;2073013;28;2057;-72
2022/05/30 03:00:09;;;;;;;;;;;;;;;20.43;47.14;94548.56;2073114;28;1312;-73
2022/05/30 03:01:12;;;;;;;;;;;;;;;20.39;47.58;94550.06;2081503;28;1761;-72
2022/05/30 03:02:15;;;;;;;;;;;;;;;20.24;47.52;94545.88;2081763;28;1062;-73
2022/05/30 03:03:18;;;;;;;;;;;;;;;20.21;47.34;94548.97;2074369;28;1459;-71
2022/05/30 03:04:21;;;;;;;;;;;;;;;20.13;47.96;94553.78;2073710;28;1076;-73
2022/05/30 03:05:23;;;;;;;;;;;;;;;20.17;48.04;94560.28;2073966;28;1185;-75
2022/05/30 03:06:26;;;;;;;;;;;;;;;20.50;47.41;94560.00;2073470;28;1151;-72
2022/05/30 03:07:28;;;;;;;;;;;;;;;20.35;47.52;94560.34;2079005;28;1692;-65
2022/05/30 03:08:30;;;;;;;;;;;;;;;20.08;47.83;94557.09;2077848;28;1343;-68
2022/05/30 03:09:32;;;;;;;;;;;;;;;20.06;47.81;94556.47;2081950;28;1018;-67
2022/05/30 03:10:35;;;;;;;;;;;;;;;19.96;48.23;94565.00;2080729;28;1092;-66
2022/05/30 03:11:38;;;;;;;;;;;;;;;19.84;47.80;94567.56;2073514;28;1494;-68
2022/05/30 03:12:41;;;;;;;;;;;;;;;19.84;48.33;94578.22;2078871;28;1297;-67
2022/05/30 03:13:44;;;;;;;;;;;;;;;20.06;48.04;94578.66;2075515;28;1410;-67
2022/05/30 03:14:46;;;;;;;;;;;;;;;20.06;48.01;94584.00;2066102;28;1910;-63
2022/05/30 03:15:49;;;;;;;;;;;;;;;20.00;48.10;94587.50;2072177;28;1278;-67
2022/05/30 03:16:51;;;;;;;;;;;;;;;19.79;48.36;94587.91;2075098;28;1449;-68
2022/05/30 03:17:53;;;;;;;;;;;;;;;19.78;48.57;94580.94;2080619;28;1461;-65
2022/05/30 03:18:57;;;;;;;;;;;;;;;19.71;48.29;94585.50;2073449;28;1100;-67
2022/05/30 03:20:00;;;;;;;;;;;;;;;19.69;48.46;94585.72;2077909;28;1509;-64
2022/05/30 03:21:01;;;;;;;;;;;;;;;19.72;48.39;94595.97;2080855;28;1050;-67
2022/05/30 03:22:04;;;;;;;;;;;;;;;19.63;48.41;94598.06;2081619;28;1002;-67
2022/05/30 03:23:06;;;;;;;;;;;;;;;19.61;48.14;94600.13;2076180;28;1648;-68
2022/05/30 03:24:09;;;;;;;;;;;;;;;19.53;48.44;94604.91;2079517;28;1768;-67
2022/05/30 03:25:11;;;;;;;;;;;;;;;19.63;48.32;94603.41;2081320;28;1554;-67
2022/05/30 03:26:14;;;;;;;;;;;;;;;19.71;48.07;94612.97;2066830;28;1429;-68
2022/05/30 03:27:17;;;;;;;;;;;;;;;19.71;48.26;94615.63;2073367;28;1091;-68
2022/05/30 03:28:20;;;;;;;;;;;;;;;19.69;48.36;94619.53;2072140;28;1087;-66
2022/05/30 03:29:23;;;;;;;;;;;;;;;19.56;48.44;94610.63;2071522;28;1686;-68
2022/05/30 03:30:25;;;;;;;;;;;;;;;19.59;48.64;94609.38;2075335;28;1580;-68
2022/05/30 03:31:28;;;;;;;;;;;;;;;19.64;48.39;94614.88;2076870;28;1544;-67
2022/05/30 03:32:30;;;;;;;;;;;;;;;19.63;48.79;94618.56;2080438;28;1366;-64
2022/05/30 03:33:33;;;;;;;;;;;;;;;19.59;48.21;94617.38;2071818;28;1202;-68
2022/05/30 03:34:36;;;;;;;;;;;;;;;19.55;48.67;94622.31;2074397;28;1474;-65
2022/05/30 03:35:39;;;;;;;;;;;;;;;19.55;48.60;94621.47;2080973;28;1998;-66
2022/05/30 03:36:42;;;;;;;;;;;;;;;19.74;48.32;94627.72;2081030;28;1313;-64
2022/05/30 03:37:45;;;;;;;;;;;;;;;19.72;48.23;94627.94;2073800;28;1866;-66
2022/05/30 03:38:47;;;;;;;;;;;;;;;20.08;47.76;94626.44;2080496;28;1080;-68
2022/05/30 03:39:49;;;;;;;;;;;;;;;20.57;45.98;94624.78;2080221;28;1500;-69
2022/05/30 03:40:52;;;;;;;;;;;;;;;20.64;46.35;94635.41;2081317;28;1221;-66
2022/05/30 03:41:54;;;;;;;;;;;;;;;20.48;46.46;94632.25;2080447;28;1477;-66
2022/05/30 03:42:57;;;;;;;;;;;;;;;20.31;47.50;94647.16;2075725;28;1552;-64
2022/05/30 03:44:00;;;;;;;;;;;;;;;20.12;48.29;94640.97;2072694;28;1119;-64
2022/05/30 03:45:04;;;;;;;;;;;;;;;19.83;49.05;94637.91;2079411;28;1390;-66
2022/05/30 03:46:05;;;;;;;;;;;;;;;19.49;50.58;94646.28;2081420;28;1018;-71
2022/05/30 03:47:09;;;;;;;;;;;;;;;19.47;50.88;94641.19;2081569;28;1003;-67
2022/05/30 03:48:11;;;;;;;;;;;;;;;19.63;51.46;94646.03;2077365;28;1536;-68
2022/05/30 03:49:14;;;;;;;;;;;;;;;19.59;50.14;94646.69;2071960;28;1235;-70
2022/05/30 03:50:19;;;;;;;;;;;;;;;19.51;50.46;94644.22;2073624;28;1074;-74
2022/05/30 03:51:22;;;;;;;;;;;;;;;19.32;51.00;94649.47;2076437;28;1429;-64
2022/05/30 03:52:23;;;;;;;;;;;;;;;19.00;51.60;94645.91;2075034;28;1798;-64
2022/05/30 03:53:26;;;;;;;;;;;;;;;19.08;52.39;94652.84;2070967;28;1070;-68
2022/05/30 03:54:29;;;;;;;;;;;;;;;19.22;51.68;94646.44;2070987;28;1271;-64
2022/05/30 03:55:34;;;;;;;;;;;;;;;19.32;51.48;94657.47;2075201;28;1989;-63
2022/05/30 03:56:36;;;;;;;;;;;;;;;19.22;51.30;94651.75;2073122;28;1189;-63
2022/05/30 03:57:39;;;;;;;;;;;;;;;19.13;51.50;94655.69;2072848;28;1705;-63
2022/05/30 03:58:42;;;;;;;;;;;;;;;19.20;51.42;94656.47;2079928;28;1035;-73
2022/05/30 03:59:44;;;;;;;;;;;;;;;19.25;51.84;94654.00;2071849;28;1023;-63
2022/05/30 04:00:47;;;;;;;;;;;;;;;19.09;51.88;94663.25;2074611;28;1698;-63
2022/05/30 04:01:50;;;;;;;;;;;;;;;18.87;52.28;94662.75;2080454;28;1118;-64
2022/05/30 04:02:52;;;;;;;;;;;;;;;18.91;52.44;94663.13;2079425;28;1407;-64
2022/05/30 04:03:54;;;;;;;;;;;;;;;19.12;52.53;94662.88;2081210;28;1696;-72
2022/05/30 04:04:56;;;;;;;;;;;;;;;19.18;52.46;94667.34;2079675;28;1199;-65
2022/05/30 04:06:01;;;;;;;;;;;;;;;19.16;52.57;94676.56;2081608;28;1126;-69
2022/05/30 04:07:03;;;;;;;;;;;;;;;19.06;53.00;94671.66;2080741;28;1156;-66
2022/05/30 04:08:07;;;;;;;;;;;;;;;19.11;53.13;94663.06;2077358;28;1419;-69
2022/05/30 04:09:09;;;;;;;;;;;;;;;19.17;52.94;94673.69;2078228;28;1698;-67
2022/05/30 04:10:12;;;;;;;;;;;;;;;19.31;53.88;94670.97;2077786;28;1454;-67
2022/05/30 04:11:14;;;;;;;;;;;;;;;19.45;53.82;94669.88;2077191;28;1786;-73
2022/05/30 04:12:20;;;;;;;;;;;;;;;19.50;53.16;94674.59;2071597;28;1609;-69
2022/05/30 04:13:23;;;;;;;;;;;;;;;19.32;53.45;94677.94;2071989;28;1418;-68
2022/05/30 04:14:25;;;;;;;;;;;;;;;19.15;53.18;94680.25;2071760;28;1971;-67
2022/05/30 04:15:28;;;;;;;;;;;;;;;19.19;53.23;94676.16;2080294;28;1617;-71
2022/05/30 04:16:31;;;;;;;;;;;;;;;19.30;53.49;94672.00;2076135;28;2069;-67
2022/05/30 04:17:35;;;;;;;;;;;;;;;19.28;53.12;94666.06;2081442;28;1899;-68
2022/05/30 04:18:37;;;;;;;;;;;;;;;19.14;53.64;94673.28;2081449;28;1093;-64
2022/05/30 04:19:41;;;;;;;;;;;;;;;18.96;53.95;94679.31;2080968;28;1134;-69
2022/05/30 04:20:46;;;;;;;;;;;;;;;18.98;53.88;94672.75;2080234;28;1131;-70
2022/05/30 04:21:50;;;;;;;;;;;;;;;19.05;53.74;94674.56;2080080;28;1715;-67
2022/05/30 04:22:53;;;;;;;;;;;;;;;19.06;54.40;94676.19;2071778;28;2021;-66
2022/05/30 04:23:54;;;;;;;;;;;;;;;18.93;54.13;94682.38;2076828;28;1672;-67
2022/05/30 04:24:57;;;;;;;;;;;;;;;18.93;54.48;94683.19;2071339;28;1264;-67
2022/05/30 04:25:59;;;;;;;;;;;;;;;18.93;54.89;94688.53;2072329;28;1272;-67
2022/05/30 04:27:02;;;;;;;;;;;;;;;19.04;55.04;94688.91;2072776;28;975;-67
2022/05/30 04:28:05;;;;;;;;;;;;;;;19.16;54.64;94681.91;2072599;28;1122;-67
2022/05/30 04:29:08;;;;;;;;;;;;;;;19.10;54.61;94688.88;2072466;28;1128;-67
2022/05/30 04:30:11;;;;;;;;;;;;;;;18.98;54.84;94686.06;2072739;28;1201;-66
2022/05/30 04:31:13;;;;;;;;;;;;;;;18.99;54.96;94687.69;2073284;28;1185;-65
2022/05/30 04:32:17;;;;;;;;;;;;;;;18.95;55.20;94689.13;2072621;28;1312;-66
2022/05/30 04:33:19;;;;;;;;;;;;;;;18.91;54.67;94690.56;2071241;28;1265;-67
2022/05/30 04:34:22;;;;;;;;;;;;;;;18.90;54.57;94690.78;2060088;28;1148;-66
2022/05/30 04:35:23;;;;;;;;;;;;;;;18.93;54.86;94693.84;2071467;28;1080;-67
2022/05/30 04:36:26;;;;;;;;;;;;;;;18.91;54.73;94689.75;2071617;28;1894;-67
2022/05/30 04:37:29;;;;;;;;;;;;;;;18.92;55.20;94686.91;2072565;28;1066;-67
2022/05/30 04:38:32;;;;;;;;;;;;;;;18.98;55.30;94696.72;2071986;28;1185;-65
2022/05/30 04:39:35;;;;;;;;;;;;;;;19.07;55.21;94694.63;2072153;28;1041;-66
2022/05/30 04:40:38;;;;;;;;;;;;;;;19.00;54.92;94694.63;2072083;28;1070;-67
2022/05/30 04:41:39;;;;;;;;;;;;;;;19.00;55.40;94694.63;2072148;28;1277;-67
2022/05/30 04:42:42;;;;;;;;;;;;;;;19.06;55.09;94692.16;2069701;28;1198;-66
2022/05/30 04:43:44;;;;;;;;;;;;;;;19.18;55.16;94693.16;2071439;28;1070;-67
2022/05/30 04:44:47;;;;;;;;;;;;;;;19.28;55.59;94690.03;2072902;28;1482;-67
2022/05/30 04:46:03;;;;;;;;;;;;;;;19.31;55.36;94689.63;2063035;28;1286;-64
2022/05/30 04:47:06;;;;;;;;;;;;;;;19.25;54.82;94696.59;2072057;28;1019;-67
2022/05/30 04:48:08;;;;;;;;;;;;;;;19.38;54.64;94688.56;2071981;28;1147;-67
2022/05/30 04:49:11;;;;;;;;;;;;;;;19.25;54.75;94690.47;2071905;28;1177;-67
2022/05/30 04:50:14;;;;;;;;;;;;;;;19.09;54.47;94689.06;2072205;28;1248;-67
2022/05/30 04:51:17;;;;;;;;;;;;;;;19.08;55.26;94695.44;2071649;28;1344;-67
2022/05/30 04:52:18;;;;;;;;;;;;;;;19.06;54.99;94694.81;2072738;28;1068;-67
2022/05/30 04:53:23;;;;;;;;;;;;;;;18.98;54.32;94685.25;2076745;28;1033;-67
2022/05/30 04:54:26;;;;;;;;;;;;;;;19.07;55.32;94699.16;2074765;28;1195;-67
2022/05/30 04:55:28;;;;;;;;;;;;;;;19.08;55.36;94696.25;2080834;28;1643;-68
2022/05/30 04:56:30;;;;;;;;;;;;;;;19.12;55.22;94699.31;2076191;28;1993;-66
2022/05/30 04:57:32;;;;;;;;;;;;;;;19.19;55.51;94702.78;2075719;28;1145;-66
2022/05/30 04:58:36;;;;;;;;;;;;;;;19.13;54.52;94703.63;2080498;28;1119;-67
2022/05/30 04:59:41;;;;;;;;;;;;;;;19.09;54.98;94699.72;2080573;28;1297;-68
2022/05/30 05:00:44;;;;;;;;;;;;;;;19.12;54.79;94707.28;2081032;28;1065;-67
2022/05/30 05:01:46;;;;;;;;;;;;;;;19.00;54.81;94705.28;2080041;28;1232;-67
2022/05/30 05:02:52;;;;;;;;;;;;;;;18.92;54.55;94705.53;2078576;28;1114;-67
2022/05/30 05:03:54;;;;;;;;;;;;;;;18.91;55.19;94701.22;2080271;28;1157;-67
2022/05/30 05:04:56;;;;;;;;;;;;;;;19.05;55.42;94701.19;2076342;28;1080;-68
2022/05/30 05:06:01;;;;;;;;;;;;;;;19.13;55.09;94703.63;2080542;28;1110;-67
2022/05/30 05:07:04;;;;;;;;;;;;;;;19.13;55.35;94703.63;2080480;28;1541;-67
2022/05/30 05:08:26;;;;;;;;;;;;;;;19.09;55.21;94713.03;2075991;28;1057;-67
2022/05/30 05:09:35;;;;;;;;;;;;;;;18.93;55.24;94707.16;2080441;28;1250;-67
2022/05/30 05:10:41;;;;;;;;;;;;;;;18.84;54.94;94705.75;2080968;28;1015;-67
2022/05/30 05:11:45;;;;;;;;;;;;;;;18.88;55.48;94712.28;2080244;28;1224;-66
2022/05/30 05:12:46;;;;;;;;;;;;;;;18.91;55.87;94711.88;2077995;28;1344;-68
2022/05/30 05:13:49;;;;;;;;;;;;;;;18.97;55.83;94721.69;2081506;28;1016;-67
2022/05/30 05:14:51;;;;;;;;;;;;;;;18.99;54.89;94718.81;2079598;28;1295;-68
2022/05/30 05:15:56;;;;;;;;;;;;;;;19.01;54.99;94722.09;2082183;28;1138;-67
2022/05/30 05:16:58;;;;;;;;;;;;;;;19.05;55.12;94720.63;2082046;28;1910;-65
2022/05/30 05:18:00;;;;;;;;;;;;;;;19.03;54.57;94713.88;2082220;28;959;-67
2022/05/30 05:19:03;;;;;;;;;;;;;;;18.97;55.13;94716.34;2078289;28;1019;-68
2022/05/30 05:20:05;;;;;;;;;;;;;;;18.94;55.22;94721.28;2076742;28;1200;-67
2022/05/30 05:21:08;;;;;;;;;;;;;;;18.90;54.96;94720.88;2080500;28;1087;-67
2022/05/30 05:22:13;;;;;;;;;;;;;;;18.92;55.33;94724.16;2073722;28;1567;-67
2022/05/30 05:23:15;;;;;;;;;;;;;;;18.96;54.96;94729.88;2072634;28;1142;-67
2022/05/30 05:24:18;;;;;;;;;;;;;;;19.03;55.78;94719.22;2072189;28;1070;-65
2022/05/30 05:25:21;;;;;;;;;;;;;;;19.06;55.56;94726.78;2074135;28;1055;-67
2022/05/30 05:26:24;;;;;;;;;;;;;;;19.06;55.20;94716.94;2073675;28;1129;-68
2022/05/30 05:27:26;;;;;;;;;;;;;;;19.20;56.26;94723.88;2074013;28;1017;-68
2022/05/30 05:28:29;;;;;;;;;;;;;;;19.45;55.85;94720.50;2073555;28;1046;-68
2022/05/30 05:29:31;;;;;;;;;;;;;;;19.52;54.88;94720.47;2073812;28;1249;-68
2022/05/30 05:30:34;;;;;;;;;;;;;;;19.41;54.43;94721.97;2069899;28;1085;-68
2022/05/30 05:31:37;;;;;;;;;;;;;;;19.33;54.20;94715.03;2068707;28;1265;-68
2022/05/30 05:32:39;;;;;;;;;;;;;;;19.21;54.34;94719.38;2073463;28;1095;-67
2022/05/30 05:33:42;;;;;;;;;;;;;;;19.18;54.32;94717.13;2081919;28;1207;-68
2022/05/30 05:34:45;;;;;;;;;;;;;;;19.25;54.81;94722.44;2078840;28;1220;-68
2022/05/30 05:35:47;;;;;;;;;;;;;;;19.35;54.67;94722.78;2082094;28;1030;-68
2022/05/30 05:36:49;;;;;;;;;;;;;;;19.44;54.80;94727.69;2081926;28;1914;-68
2022/05/30 05:37:51;;;;;;;;;;;;;;;19.74;54.40;94719.16;2082437;28;1096;-68
2022/05/30 05:38:54;;;;;;;;;;;;;;;19.98;53.78;94728.25;2081809;28;1182;-67
2022/05/30 05:39:56;;;;;;;;;;;;;;;20.15;53.49;94733.91;2082372;28;1121;-68
2022/05/30 05:41:00;;;;;;;;;;;;;;;20.28;52.91;94725.78;2082099;28;1329;-68
2022/05/30 05:42:03;;;;;;;;;;;;;;;20.34;52.42;94727.63;2076877;28;1158;-68